sensor_id;sensor_type;location;lat;lon;timestamp;pressure;altitude;pressure_sealevel;temperature;humidity
79705;BME280;69940;53.120;8.764;2023-07-16T00:01:18;100871.00;;;20.89;76.89
79705;BME280;69940;53.120;8.764;2023-07-16T00:03:48;100869.00;;;20.87;76.61
79705;BME280;69940;53.120;8.764;2023-07-16T00:06:18;100871.00;;;20.85;76.61
79705;BME280;69940;53.120;8.764;2023-07-16T00:08:48;100873.00;;;20.84;76.43
79705;BME280;69940;53.120;8.764;2023-07-16T00:11:18;100873.00;;;20.82;76.23
79705;BME280;69940;53.120;8.764;2023-07-16T00:13:49;100872.00;;;20.81;75.51
79705;BME280;69940;53.120;8.764;2023-07-16T00:16:19;100870.00;;;20.80;75.25
79705;BME280;69940;53.120;8.764;2023-07-16T00:18:48;100863.00;;;20.79;74.91
79705;BME280;69940;53.120;8.764;2023-07-16T00:21:18;100854.00;;;20.77;74.32
79705;BME280;69940;53.120;8.764;2023-07-16T00:23:48;100847.00;;;20.76;74.53
79705;BME280;69940;53.120;8.764;2023-07-16T00:26:18;100844.00;;;20.74;74.82
79705;BME280;69940;53.120;8.764;2023-07-16T00:28:48;100845.00;;;20.73;75.11
79705;BME280;69940;53.120;8.764;2023-07-16T00:31:18;100850.00;;;20.71;74.96
79705;BME280;69940;53.120;8.764;2023-07-16T00:33:48;100855.00;;;20.69;74.64
79705;BME280;69940;53.120;8.764;2023-07-16T00:36:18;100858.00;;;20.67;74.67
79705;BME280;69940;53.120;8.764;2023-07-16T00:38:48;100862.00;;;20.66;74.89
79705;BME280;69940;53.120;8.764;2023-07-16T00:41:18;100864.00;;;20.64;74.90
79705;BME280;69940;53.120;8.764;2023-07-16T00:43:48;100860.00;;;20.62;75.16
79705;BME280;69940;53.120;8.764;2023-07-16T00:46:18;100859.00;;;20.60;74.97
79705;BME280;69940;53.120;8.764;2023-07-16T00:48:48;100860.00;;;20.58;74.98
79705;BME280;69940;53.120;8.764;2023-07-16T00:51:19;100862.00;;;20.57;75.16
79705;BME280;69940;53.120;8.764;2023-07-16T00:53:48;100864.00;;;20.56;74.65
79705;BME280;69940;53.120;8.764;2023-07-16T00:56:18;100866.00;;;20.56;74.64
79705;BME280;69940;53.120;8.764;2023-07-16T00:58:48;100866.00;;;20.56;74.58
79705;BME280;69940;53.120;8.764;2023-07-16T01:01:18;100866.00;;;20.54;75.08
79705;BME280;69940;53.120;8.764;2023-07-16T01:03:48;100872.00;;;20.54;75.17
79705;BME280;69940;53.120;8.764;2023-07-16T01:09:03;100888.00;;;20.53;75.42
79705;BME280;69940;53.120;8.764;2023-07-16T01:11:18;100895.00;;;20.53;75.52
79705;BME280;69940;53.120;8.764;2023-07-16T01:13:48;100900.00;;;20.52;75.51
79705;BME280;69940;53.120;8.764;2023-07-16T01:16:22;100902.00;;;20.51;75.44
79705;BME280;69940;53.120;8.764;2023-07-16T01:18:48;100900.00;;;20.50;75.49
79705;BME280;69940;53.120;8.764;2023-07-16T01:21:20;100900.00;;;20.49;75.48
79705;BME280;69940;53.120;8.764;2023-07-16T01:24:11;100903.00;;;20.48;75.79
79705;BME280;69940;53.120;8.764;2023-07-16T01:31:19;100910.00;;;20.44;75.75
79705;BME280;69940;53.120;8.764;2023-07-16T01:33:49;100914.00;;;20.44;75.66
79705;BME280;69940;53.120;8.764;2023-07-16T01:36:19;100914.00;;;20.44;75.92
79705;BME280;69940;53.120;8.764;2023-07-16T01:38:48;100914.00;;;20.43;75.92
79705;BME280;69940;53.120;8.764;2023-07-16T01:41:19;100914.00;;;20.42;76.11
79705;BME280;69940;53.120;8.764;2023-07-16T01:43:48;100914.00;;;20.41;76.26
79705;BME280;69940;53.120;8.764;2023-07-16T01:46:18;100915.00;;;20.40;75.87
79705;BME280;69940;53.120;8.764;2023-07-16T01:48:48;100915.00;;;20.39;75.88
79705;BME280;69940;53.120;8.764;2023-07-16T01:51:20;100914.00;;;20.38;76.24
79705;BME280;69940;53.120;8.764;2023-07-16T01:53:48;100914.00;;;20.36;76.16
79705;BME280;69940;53.120;8.764;2023-07-16T01:56:18;100914.00;;;20.35;76.47
79705;BME280;69940;53.120;8.764;2023-07-16T01:58:48;100912.00;;;20.33;76.66
79705;BME280;69940;53.120;8.764;2023-07-16T02:01:18;100909.00;;;20.31;76.73
79705;BME280;69940;53.120;8.764;2023-07-16T02:03:48;100907.00;;;20.29;76.77
79705;BME280;69940;53.120;8.764;2023-07-16T02:06:18;100905.00;;;20.26;77.18
79705;BME280;69940;53.120;8.764;2023-07-16T02:08:48;100904.00;;;20.24;76.92
79705;BME280;69940;53.120;8.764;2023-07-16T02:11:18;100900.00;;;20.22;76.79
79705;BME280;69940;53.120;8.764;2023-07-16T02:13:48;100899.00;;;20.21;76.70
79705;BME280;69940;53.120;8.764;2023-07-16T02:16:18;100897.00;;;20.20;76.63
79705;BME280;69940;53.120;8.764;2023-07-16T02:18:48;100896.00;;;20.20;76.55
79705;BME280;69940;53.120;8.764;2023-07-16T02:21:18;100897.00;;;20.19;76.62
79705;BME280;69940;53.120;8.764;2023-07-16T02:23:48;100898.00;;;20.18;76.53
79705;BME280;69940;53.120;8.764;2023-07-16T02:26:18;100897.00;;;20.17;76.80
79705;BME280;69940;53.120;8.764;2023-07-16T02:28:48;100899.00;;;20.16;76.93
79705;BME280;69940;53.120;8.764;2023-07-16T02:31:18;100902.00;;;20.16;76.74
79705;BME280;69940;53.120;8.764;2023-07-16T02:33:48;100903.00;;;20.16;76.84
79705;BME280;69940;53.120;8.764;2023-07-16T02:36:18;100904.00;;;20.16;76.65
79705;BME280;69940;53.120;8.764;2023-07-16T02:38:48;100905.00;;;20.16;76.74
79705;BME280;69940;53.120;8.764;2023-07-16T02:41:18;100905.00;;;20.17;76.60
79705;BME280;69940;53.120;8.764;2023-07-16T02:44:04;100905.00;;;20.17;76.60
79705;BME280;69940;53.120;8.764;2023-07-16T02:46:18;100906.00;;;20.17;76.61
79705;BME280;69940;53.120;8.764;2023-07-16T02:48:48;100906.00;;;20.16;76.59
79705;BME280;69940;53.120;8.764;2023-07-16T02:51:18;100907.00;;;20.15;76.66
79705;BME280;69940;53.120;8.764;2023-07-16T02:53:48;100907.00;;;20.14;76.70
79705;BME280;69940;53.120;8.764;2023-07-16T02:56:18;100908.00;;;20.12;76.68
79705;BME280;69940;53.120;8.764;2023-07-16T02:58:48;100909.00;;;20.10;76.85
79705;BME280;69940;53.120;8.764;2023-07-16T03:01:18;100910.00;;;20.07;77.00
79705;BME280;69940;53.120;8.764;2023-07-16T03:03:48;100913.00;;;20.06;76.90
79705;BME280;69940;53.120;8.764;2023-07-16T03:06:18;100916.00;;;20.05;76.86
79705;BME280;69940;53.120;8.764;2023-07-16T03:08:49;100919.00;;;20.04;76.74
79705;BME280;69940;53.120;8.764;2023-07-16T03:11:18;100921.00;;;20.02;76.73
79705;BME280;69940;53.120;8.764;2023-07-16T03:13:49;100922.00;;;20.01;76.90
79705;BME280;69940;53.120;8.764;2023-07-16T03:16:18;100924.00;;;20.00;77.04
79705;BME280;69940;53.120;8.764;2023-07-16T03:18:48;100926.00;;;19.98;77.06
79705;BME280;69940;53.120;8.764;2023-07-16T03:21:18;100930.00;;;19.96;77.12
79705;BME280;69940;53.120;8.764;2023-07-16T03:23:48;100933.00;;;19.95;77.15
79705;BME280;69940;53.120;8.764;2023-07-16T03:26:18;100935.00;;;19.93;77.41
79705;BME280;69940;53.120;8.764;2023-07-16T03:28:48;100937.00;;;19.92;77.34
79705;BME280;69940;53.120;8.764;2023-07-16T03:31:18;100939.00;;;19.91;77.48
79705;BME280;69940;53.120;8.764;2023-07-16T03:33:48;100940.00;;;19.89;77.67
79705;BME280;69940;53.120;8.764;2023-07-16T03:36:18;100943.00;;;19.88;77.81
79705;BME280;69940;53.120;8.764;2023-07-16T03:38:48;100946.00;;;19.87;77.93
79705;BME280;69940;53.120;8.764;2023-07-16T03:41:18;100949.00;;;19.87;77.83
79705;BME280;69940;53.120;8.764;2023-07-16T03:43:48;100952.00;;;19.87;77.84
79705;BME280;69940;53.120;8.764;2023-07-16T03:46:18;100954.00;;;19.87;77.76
79705;BME280;69940;53.120;8.764;2023-07-16T03:48:48;100957.00;;;19.87;77.81
79705;BME280;69940;53.120;8.764;2023-07-16T03:51:18;100959.00;;;19.88;77.74
79705;BME280;69940;53.120;8.764;2023-07-16T03:53:48;100962.00;;;19.88;77.91
79705;BME280;69940;53.120;8.764;2023-07-16T03:56:18;100966.00;;;19.88;77.95
79705;BME280;69940;53.120;8.764;2023-07-16T03:58:48;100969.00;;;19.87;78.02
79705;BME280;69940;53.120;8.764;2023-07-16T04:01:18;100973.00;;;19.88;77.87
79705;BME280;69940;53.120;8.764;2023-07-16T04:03:48;100977.00;;;19.89;77.96
79705;BME280;69940;53.120;8.764;2023-07-16T04:06:18;100980.00;;;19.90;77.93
79705;BME280;69940;53.120;8.764;2023-07-16T04:08:48;100982.00;;;19.90;77.74
79705;BME280;69940;53.120;8.764;2023-07-16T04:11:18;100983.00;;;19.91;77.62
79705;BME280;69940;53.120;8.764;2023-07-16T04:13:48;100983.00;;;19.90;77.64
79705;BME280;69940;53.120;8.764;2023-07-16T04:16:18;100981.00;;;19.88;77.72
79705;BME280;69940;53.120;8.764;2023-07-16T04:18:48;100980.00;;;19.86;77.87
79705;BME280;69940;53.120;8.764;2023-07-16T04:21:18;100981.00;;;19.84;77.83
79705;BME280;69940;53.120;8.764;2023-07-16T04:23:48;100983.00;;;19.82;77.90
79705;BME280;69940;53.120;8.764;2023-07-16T04:26:18;100983.00;;;19.81;77.79
79705;BME280;69940;53.120;8.764;2023-07-16T04:28:48;100983.00;;;19.81;77.60
79705;BME280;69940;53.120;8.764;2023-07-16T04:31:18;100986.00;;;19.81;77.75
79705;BME280;69940;53.120;8.764;2023-07-16T04:33:48;100988.00;;;19.80;77.65
79705;BME280;69940;53.120;8.764;2023-07-16T04:36:18;100991.00;;;19.80;77.57
79705;BME280;69940;53.120;8.764;2023-07-16T04:38:48;100994.00;;;19.79;77.66
79705;BME280;69940;53.120;8.764;2023-07-16T04:41:18;100996.00;;;19.78;77.64
79705;BME280;69940;53.120;8.764;2023-07-16T04:43:48;100999.00;;;19.78;77.60
79705;BME280;69940;53.120;8.764;2023-07-16T04:46:18;101001.00;;;19.77;77.73
79705;BME280;69940;53.120;8.764;2023-07-16T04:48:48;101004.00;;;19.76;77.65
79705;BME280;69940;53.120;8.764;2023-07-16T04:51:18;101007.00;;;19.76;77.49
79705;BME280;69940;53.120;8.764;2023-07-16T04:53:49;101008.00;;;19.75;77.28
79705;BME280;69940;53.120;8.764;2023-07-16T04:56:18;101010.00;;;19.75;77.21
79705;BME280;69940;53.120;8.764;2023-07-16T04:58:48;101012.00;;;19.75;77.22
79705;BME280;69940;53.120;8.764;2023-07-16T05:01:18;101015.00;;;19.74;77.09
79705;BME280;69940;53.120;8.764;2023-07-16T05:03:48;101017.00;;;19.74;77.03
79705;BME280;69940;53.120;8.764;2023-07-16T05:06:18;101019.00;;;19.74;76.90
79705;BME280;69940;53.120;8.764;2023-07-16T05:08:48;101020.00;;;19.75;76.79
79705;BME280;69940;53.120;8.764;2023-07-16T05:11:19;101020.00;;;19.75;76.72
79705;BME280;69940;53.120;8.764;2023-07-16T05:13:48;101021.00;;;19.76;76.50
79705;BME280;69940;53.120;8.764;2023-07-16T05:16:18;101023.00;;;19.76;76.34
79705;BME280;69940;53.120;8.764;2023-07-16T05:18:48;101027.00;;;19.76;76.24
79705;BME280;69940;53.120;8.764;2023-07-16T05:21:18;101030.00;;;19.77;76.02
79705;BME280;69940;53.120;8.764;2023-07-16T05:23:48;101032.00;;;19.78;75.93
79705;BME280;69940;53.120;8.764;2023-07-16T05:26:18;101034.00;;;19.79;75.93
79705;BME280;69940;53.120;8.764;2023-07-16T05:28:48;101035.00;;;19.81;75.86
79705;BME280;69940;53.120;8.764;2023-07-16T05:31:18;101036.00;;;19.82;75.56
79705;BME280;69940;53.120;8.764;2023-07-16T05:33:48;101036.00;;;19.83;74.97
79705;BME280;69940;53.120;8.764;2023-07-16T05:36:18;101037.00;;;19.84;74.72
79705;BME280;69940;53.120;8.764;2023-07-16T05:38:48;101038.00;;;19.84;74.24
79705;BME280;69940;53.120;8.764;2023-07-16T05:41:18;101039.00;;;19.84;74.09
79705;BME280;69940;53.120;8.764;2023-07-16T05:43:48;101040.00;;;19.85;73.83
79705;BME280;69940;53.120;8.764;2023-07-16T05:46:18;101040.00;;;19.85;73.64
79705;BME280;69940;53.120;8.764;2023-07-16T05:48:48;101040.00;;;19.87;73.61
79705;BME280;69940;53.120;8.764;2023-07-16T05:51:18;101040.00;;;19.88;73.19
79705;BME280;69940;53.120;8.764;2023-07-16T05:53:48;101041.00;;;19.89;72.91
79705;BME280;69940;53.120;8.764;2023-07-16T05:56:18;101042.00;;;19.90;72.75
79705;BME280;69940;53.120;8.764;2023-07-16T05:58:48;101044.00;;;19.91;72.99
79705;BME280;69940;53.120;8.764;2023-07-16T06:01:18;101045.00;;;19.93;72.89
79705;BME280;69940;53.120;8.764;2023-07-16T06:03:48;101045.00;;;19.94;72.88
79705;BME280;69940;53.120;8.764;2023-07-16T06:06:18;101045.00;;;19.96;72.95
79705;BME280;69940;53.120;8.764;2023-07-16T06:08:49;101046.00;;;19.98;72.81
79705;BME280;69940;53.120;8.764;2023-07-16T06:11:18;101047.00;;;19.99;72.86
79705;BME280;69940;53.120;8.764;2023-07-16T06:13:48;101050.00;;;20.00;73.04
79705;BME280;69940;53.120;8.764;2023-07-16T06:16:18;101050.00;;;20.02;72.68
79705;BME280;69940;53.120;8.764;2023-07-16T06:18:48;101050.00;;;20.03;72.67
79705;BME280;69940;53.120;8.764;2023-07-16T06:21:18;101052.00;;;20.05;72.62
79705;BME280;69940;53.120;8.764;2023-07-16T06:23:48;101054.00;;;20.08;72.44
79705;BME280;69940;53.120;8.764;2023-07-16T06:26:18;101054.00;;;20.10;72.67
79705;BME280;69940;53.120;8.764;2023-07-16T06:28:51;101054.00;;;20.12;72.66
79705;BME280;69940;53.120;8.764;2023-07-16T06:31:18;101055.00;;;20.14;72.25
79705;BME280;69940;53.120;8.764;2023-07-16T06:33:49;101054.00;;;20.16;71.60
79705;BME280;69940;53.120;8.764;2023-07-16T06:36:19;101056.00;;;20.18;71.16
79705;BME280;69940;53.120;8.764;2023-07-16T06:38:48;101059.00;;;20.19;71.33
79705;BME280;69940;53.120;8.764;2023-07-16T06:41:18;101062.00;;;20.21;71.14
79705;BME280;69940;53.120;8.764;2023-07-16T06:43:48;101064.00;;;20.23;71.16
79705;BME280;69940;53.120;8.764;2023-07-16T06:46:18;101065.00;;;20.24;71.47
79705;BME280;69940;53.120;8.764;2023-07-16T06:48:48;101068.00;;;20.27;71.60
79705;BME280;69940;53.120;8.764;2023-07-16T06:51:18;101070.00;;;20.30;71.71
79705;BME280;69940;53.120;8.764;2023-07-16T06:53:48;101072.00;;;20.34;71.59
79705;BME280;69940;53.120;8.764;2023-07-16T06:56:18;101073.00;;;20.37;71.52
79705;BME280;69940;53.120;8.764;2023-07-16T06:58:48;101076.00;;;20.42;71.48
79705;BME280;69940;53.120;8.764;2023-07-16T07:01:18;101081.00;;;20.47;71.06
79705;BME280;69940;53.120;8.764;2023-07-16T07:03:48;101084.00;;;20.54;71.19
79705;BME280;69940;53.120;8.764;2023-07-16T07:06:18;101086.00;;;20.60;71.08
79705;BME280;69940;53.120;8.764;2023-07-16T07:08:48;101088.00;;;20.66;71.16
79705;BME280;69940;53.120;8.764;2023-07-16T07:11:18;101089.00;;;20.73;71.24
79705;BME280;69940;53.120;8.764;2023-07-16T07:13:48;101090.00;;;20.78;70.86
79705;BME280;69940;53.120;8.764;2023-07-16T07:16:18;101089.00;;;20.83;70.65
79705;BME280;69940;53.120;8.764;2023-07-16T07:18:48;101090.00;;;20.85;70.81
79705;BME280;69940;53.120;8.764;2023-07-16T07:21:18;101093.00;;;20.87;70.12
79705;BME280;69940;53.120;8.764;2023-07-16T07:23:48;101096.00;;;20.87;70.03
79705;BME280;69940;53.120;8.764;2023-07-16T07:26:18;101097.00;;;20.87;69.69
79705;BME280;69940;53.120;8.764;2023-07-16T07:28:48;101098.00;;;20.85;69.77
79705;BME280;69940;53.120;8.764;2023-07-16T07:31:18;101099.00;;;20.83;70.41
79705;BME280;69940;53.120;8.764;2023-07-16T07:33:48;101101.00;;;20.80;71.08
79705;BME280;69940;53.120;8.764;2023-07-16T07:36:18;101103.00;;;20.78;70.98
79705;BME280;69940;53.120;8.764;2023-07-16T07:38:48;101104.00;;;20.77;71.26
79705;BME280;69940;53.120;8.764;2023-07-16T07:41:18;101106.00;;;20.76;69.99
79705;BME280;69940;53.120;8.764;2023-07-16T07:43:48;101105.00;;;20.76;69.78
79705;BME280;69940;53.120;8.764;2023-07-16T07:46:18;101105.00;;;20.77;68.78
79705;BME280;69940;53.120;8.764;2023-07-16T07:48:48;101105.00;;;20.78;68.56
79705;BME280;69940;53.120;8.764;2023-07-16T07:51:18;101106.00;;;20.78;67.67
79705;BME280;69940;53.120;8.764;2023-07-16T07:53:48;101105.00;;;20.78;67.43
79705;BME280;69940;53.120;8.764;2023-07-16T07:56:18;101105.00;;;20.82;67.10
79705;BME280;69940;53.120;8.764;2023-07-16T07:58:48;101104.00;;;20.87;65.81
79705;BME280;69940;53.120;8.764;2023-07-16T08:01:18;101105.00;;;20.93;65.88
79705;BME280;69940;53.120;8.764;2023-07-16T08:03:48;101108.00;;;20.96;66.00
79705;BME280;69940;53.120;8.764;2023-07-16T08:06:18;101108.00;;;21.00;65.89
79705;BME280;69940;53.120;8.764;2023-07-16T08:08:48;101107.00;;;21.04;65.88
79705;BME280;69940;53.120;8.764;2023-07-16T08:11:18;101108.00;;;21.07;65.91
79705;BME280;69940;53.120;8.764;2023-07-16T08:13:50;101110.00;;;21.11;65.98
79705;BME280;69940;53.120;8.764;2023-07-16T08:16:18;101112.00;;;21.17;65.79
79705;BME280;69940;53.120;8.764;2023-07-16T08:18:48;101115.00;;;21.22;65.67
79705;BME280;69940;53.120;8.764;2023-07-16T08:21:20;101120.00;;;21.26;64.28
79705;BME280;69940;53.120;8.764;2023-07-16T08:23:49;101121.00;;;21.30;64.19
79705;BME280;69940;53.120;8.764;2023-07-16T08:26:18;101123.00;;;21.33;62.91
79705;BME280;69940;53.120;8.764;2023-07-16T08:28:48;101126.00;;;21.36;61.78
79705;BME280;69940;53.120;8.764;2023-07-16T08:31:18;101128.00;;;21.38;61.46
79705;BME280;69940;53.120;8.764;2023-07-16T08:33:48;101129.00;;;21.42;61.49
79705;BME280;69940;53.120;8.764;2023-07-16T08:36:18;101132.00;;;21.47;60.16
79705;BME280;69940;53.120;8.764;2023-07-16T08:38:48;101138.00;;;21.51;59.45
79705;BME280;69940;53.120;8.764;2023-07-16T08:41:18;101138.00;;;21.54;59.27
79705;BME280;69940;53.120;8.764;2023-07-16T08:43:48;101141.00;;;21.57;59.66
79705;BME280;69940;53.120;8.764;2023-07-16T08:46:18;101140.00;;;21.61;60.35
79705;BME280;69940;53.120;8.764;2023-07-16T08:48:48;101140.00;;;21.65;59.59
79705;BME280;69940;53.120;8.764;2023-07-16T08:51:20;101141.00;;;21.70;60.20
79705;BME280;69940;53.120;8.764;2023-07-16T08:53:48;101145.00;;;21.74;60.09
79705;BME280;69940;53.120;8.764;2023-07-16T08:56:18;101150.00;;;21.77;58.78
79705;BME280;69940;53.120;8.764;2023-07-16T08:58:49;101151.00;;;21.79;58.39
79705;BME280;69940;53.120;8.764;2023-07-16T09:01:19;101153.00;;;21.82;58.51
79705;BME280;69940;53.120;8.764;2023-07-16T09:03:48;101157.00;;;21.85;58.75
79705;BME280;69940;53.120;8.764;2023-07-16T09:06:18;101160.00;;;21.89;57.68
79705;BME280;69940;53.120;8.764;2023-07-16T09:08:48;101162.00;;;21.91;57.95
79705;BME280;69940;53.120;8.764;2023-07-16T09:11:22;101166.00;;;21.92;58.01
79705;BME280;69940;53.120;8.764;2023-07-16T09:13:49;101167.00;;;21.92;57.63
79705;BME280;69940;53.120;8.764;2023-07-16T09:16:19;101176.00;;;21.93;57.58
79705;BME280;69940;53.120;8.764;2023-07-16T09:18:48;101179.00;;;21.95;57.16
79705;BME280;69940;53.120;8.764;2023-07-16T09:21:18;101181.00;;;21.96;56.63
79705;BME280;69940;53.120;8.764;2023-07-16T09:23:49;101184.00;;;21.96;57.36
79705;BME280;69940;53.120;8.764;2023-07-16T09:26:18;101186.00;;;21.94;57.30
79705;BME280;69940;53.120;8.764;2023-07-16T09:28:48;101187.00;;;21.91;57.16
79705;BME280;69940;53.120;8.764;2023-07-16T09:31:18;101187.00;;;21.87;57.65
79705;BME280;69940;53.120;8.764;2023-07-16T09:33:51;101189.00;;;21.83;57.29
79705;BME280;69940;53.120;8.764;2023-07-16T09:36:25;101191.00;;;21.83;57.41
79705;BME280;69940;53.120;8.764;2023-07-16T09:38:48;101193.00;;;21.86;57.58
79705;BME280;69940;53.120;8.764;2023-07-16T09:41:19;101194.00;;;21.92;56.72
79705;BME280;69940;53.120;8.764;2023-07-16T09:43:48;101195.00;;;22.00;56.83
79705;BME280;69940;53.120;8.764;2023-07-16T09:46:18;101196.00;;;22.08;56.46
79705;BME280;69940;53.120;8.764;2023-07-16T09:48:48;101198.00;;;22.15;56.15
79705;BME280;69940;53.120;8.764;2023-07-16T09:51:19;101200.00;;;22.20;55.58
79705;BME280;69940;53.120;8.764;2023-07-16T09:53:50;101201.00;;;22.23;55.87
79705;BME280;69940;53.120;8.764;2023-07-16T09:56:20;101203.00;;;22.27;56.03
79705;BME280;69940;53.120;8.764;2023-07-16T09:58:49;101205.00;;;22.32;55.48
79705;BME280;69940;53.120;8.764;2023-07-16T10:01:18;101207.00;;;22.37;54.91
79705;BME280;69940;53.120;8.764;2023-07-16T10:03:49;101209.00;;;22.42;55.15
79705;BME280;69940;53.120;8.764;2023-07-16T10:06:18;101210.00;;;22.47;55.61
79705;BME280;69940;53.120;8.764;2023-07-16T10:08:49;101209.00;;;22.51;55.16
79705;BME280;69940;53.120;8.764;2023-07-16T10:11:18;101208.00;;;22.53;55.14
79705;BME280;69940;53.120;8.764;2023-07-16T10:13:49;101209.00;;;22.55;55.82
79705;BME280;69940;53.120;8.764;2023-07-16T10:16:21;101210.00;;;22.57;55.78
79705;BME280;69940;53.120;8.764;2023-07-16T10:18:51;101209.00;;;22.59;55.74
79705;BME280;69940;53.120;8.764;2023-07-16T10:21:23;101210.00;;;22.63;55.74
79705;BME280;69940;53.120;8.764;2023-07-16T10:23:56;101211.00;;;22.67;55.69
79705;BME280;69940;53.120;8.764;2023-07-16T10:26:18;101213.00;;;22.72;55.31
79705;BME280;69940;53.120;8.764;2023-07-16T10:28:48;101215.00;;;22.75;54.51
79705;BME280;69940;53.120;8.764;2023-07-16T10:31:22;101214.00;;;22.76;54.96
79705;BME280;69940;53.120;8.764;2023-07-16T10:34:01;101214.00;;;22.76;55.33
79705;BME280;69940;53.120;8.764;2023-07-16T10:36:18;101216.00;;;22.75;54.78
79705;BME280;69940;53.120;8.764;2023-07-16T10:38:48;101216.00;;;22.75;55.03
79705;BME280;69940;53.120;8.764;2023-07-16T10:41:18;101218.00;;;22.77;54.43
79705;BME280;69940;53.120;8.764;2023-07-16T10:43:49;101220.00;;;22.78;53.89
79705;BME280;69940;53.120;8.764;2023-07-16T10:46:19;101225.00;;;22.78;54.01
79705;BME280;69940;53.120;8.764;2023-07-16T10:48:48;101227.00;;;22.78;53.57
79705;BME280;69940;53.120;8.764;2023-07-16T10:51:26;101229.00;;;22.77;53.32
79705;BME280;69940;53.120;8.764;2023-07-16T10:53:48;101230.00;;;22.78;53.96
79705;BME280;69940;53.120;8.764;2023-07-16T10:56:19;101231.00;;;22.80;53.83
79705;BME280;69940;53.120;8.764;2023-07-16T10:58:49;101235.00;;;22.82;54.51
79705;BME280;69940;53.120;8.764;2023-07-16T11:01:18;101235.00;;;22.83;53.74
79705;BME280;69940;53.120;8.764;2023-07-16T11:03:48;101236.00;;;22.84;53.49
79705;BME280;69940;53.120;8.764;2023-07-16T11:06:18;101238.00;;;22.87;53.75
79705;BME280;69940;53.120;8.764;2023-07-16T11:08:48;101241.00;;;22.92;54.24
79705;BME280;69940;53.120;8.764;2023-07-16T11:11:29;101242.00;;;22.96;53.22
79705;BME280;69940;53.120;8.764;2023-07-16T11:13:48;101244.00;;;23.01;52.82
79705;BME280;69940;53.120;8.764;2023-07-16T11:16:18;101245.00;;;23.05;53.53
79705;BME280;69940;53.120;8.764;2023-07-16T11:18:48;101245.00;;;23.08;53.15
79705;BME280;69940;53.120;8.764;2023-07-16T11:21:19;101246.00;;;23.08;53.86
79705;BME280;69940;53.120;8.764;2023-07-16T11:23:48;101250.00;;;23.09;54.05
79705;BME280;69940;53.120;8.764;2023-07-16T11:26:18;101252.00;;;23.12;53.29
79705;BME280;69940;53.120;8.764;2023-07-16T11:28:50;101255.00;;;23.16;53.49
79705;BME280;69940;53.120;8.764;2023-07-16T11:31:18;101258.00;;;23.23;53.23
79705;BME280;69940;53.120;8.764;2023-07-16T11:33:48;101260.00;;;23.30;52.82
79705;BME280;69940;53.120;8.764;2023-07-16T11:36:18;101260.00;;;23.38;53.00
79705;BME280;69940;53.120;8.764;2023-07-16T11:38:49;101260.00;;;23.46;52.74
79705;BME280;69940;53.120;8.764;2023-07-16T11:41:19;101262.00;;;23.50;52.30
79705;BME280;69940;53.120;8.764;2023-07-16T11:43:48;101263.00;;;23.53;51.88
79705;BME280;69940;53.120;8.764;2023-07-16T11:46:18;101267.00;;;23.54;51.71
79705;BME280;69940;53.120;8.764;2023-07-16T11:48:48;101268.00;;;23.52;51.85
79705;BME280;69940;53.120;8.764;2023-07-16T11:51:18;101271.00;;;23.47;52.14
79705;BME280;69940;53.120;8.764;2023-07-16T11:53:48;101272.00;;;23.40;52.13
79705;BME280;69940;53.120;8.764;2023-07-16T11:56:18;101275.00;;;23.31;52.51
79705;BME280;69940;53.120;8.764;2023-07-16T11:58:49;101276.00;;;23.23;52.87
79705;BME280;69940;53.120;8.764;2023-07-16T12:01:18;101279.00;;;23.20;53.14
79705;BME280;69940;53.120;8.764;2023-07-16T12:03:48;101279.00;;;23.19;52.88
79705;BME280;69940;53.120;8.764;2023-07-16T12:06:18;101276.00;;;23.19;52.83
79705;BME280;69940;53.120;8.764;2023-07-16T12:08:48;101279.00;;;23.19;52.83
79705;BME280;69940;53.120;8.764;2023-07-16T12:11:18;101280.00;;;23.19;52.61
79705;BME280;69940;53.120;8.764;2023-07-16T12:13:48;101283.00;;;23.16;52.15
79705;BME280;69940;53.120;8.764;2023-07-16T12:16:18;101283.00;;;23.12;52.71
79705;BME280;69940;53.120;8.764;2023-07-16T12:18:48;101282.00;;;23.10;53.61
79705;BME280;69940;53.120;8.764;2023-07-16T12:21:18;101284.00;;;23.09;52.78
79705;BME280;69940;53.120;8.764;2023-07-16T12:23:48;101287.00;;;23.11;53.52
79705;BME280;69940;53.120;8.764;2023-07-16T12:26:18;101290.00;;;23.18;52.48
79705;BME280;69940;53.120;8.764;2023-07-16T12:28:48;101292.00;;;23.25;51.73
79705;BME280;69940;53.120;8.764;2023-07-16T12:31:18;101293.00;;;23.30;51.47
79705;BME280;69940;53.120;8.764;2023-07-16T12:33:48;101294.00;;;23.33;52.12
79705;BME280;69940;53.120;8.764;2023-07-16T12:36:18;101296.00;;;23.35;52.26
79705;BME280;69940;53.120;8.764;2023-07-16T12:38:48;101298.00;;;23.35;52.41
79705;BME280;69940;53.120;8.764;2023-07-16T12:41:18;101301.00;;;23.31;53.21
79705;BME280;69940;53.120;8.764;2023-07-16T12:43:48;101305.00;;;23.27;53.18
79705;BME280;69940;53.120;8.764;2023-07-16T12:46:18;101309.00;;;23.25;53.34
79705;BME280;69940;53.120;8.764;2023-07-16T12:48:48;101315.00;;;23.27;53.48
79705;BME280;69940;53.120;8.764;2023-07-16T12:51:18;101318.00;;;23.27;52.93
79705;BME280;69940;53.120;8.764;2023-07-16T12:53:48;101323.00;;;23.26;52.75
79705;BME280;69940;53.120;8.764;2023-07-16T12:56:18;101324.00;;;23.23;53.19
79705;BME280;69940;53.120;8.764;2023-07-16T12:58:48;101326.00;;;23.18;53.24
79705;BME280;69940;53.120;8.764;2023-07-16T13:01:18;101328.00;;;23.14;53.40
79705;BME280;69940;53.120;8.764;2023-07-16T13:03:48;101329.00;;;23.11;53.23
79705;BME280;69940;53.120;8.764;2023-07-16T13:06:18;101334.00;;;23.09;52.90
79705;BME280;69940;53.120;8.764;2023-07-16T13:08:48;101339.00;;;23.05;52.81
79705;BME280;69940;53.120;8.764;2023-07-16T13:11:18;101343.00;;;23.01;53.08